createdAt,value
2018-10-02T00:01:15.236Z,3.70
2018-10-02T00:03:42.547Z,6.30
2018-10-02T00:06:09.888Z,3.17
2018-10-02T00:08:37.182Z,7.27
2018-10-02T00:11:10.152Z,4.43
2018-10-02T00:13:43.030Z,3.30
2018-10-02T00:16:10.351Z,3.63
2018-10-02T00:18:37.690Z,4.37
2018-10-02T00:21:04.936Z,3.13
2018-10-02T00:23:32.184Z,4.53
2018-10-02T00:25:59.435Z,4.73
2018-10-02T00:28:26.675Z,4.73
2018-10-02T00:30:53.960Z,5.57
2018-10-02T00:33:21.211Z,3.13
2018-10-02T00:35:48.439Z,4.47
2018-10-02T00:38:15.735Z,4.53
2018-10-02T00:40:43.056Z,3.47
2018-10-02T00:43:10.325Z,5.27
2018-10-02T00:45:37.570Z,5.13
2018-10-02T00:48:04.867Z,3.77
2018-10-02T00:50:32.145Z,3.67
2018-10-02T00:52:59.448Z,4.87
2018-10-02T00:55:26.740Z,4.70
2018-10-02T00:57:54.024Z,7.27
2018-10-02T01:00:21.497Z,3.73
2018-10-02T01:02:48.980Z,2.40
2018-10-02T01:05:16.256Z,4.43
2018-10-02T01:07:43.565Z,5.77
2018-10-02T01:10:10.883Z,5.23
2018-10-02T01:12:38.172Z,4.77
2018-10-02T01:15:05.513Z,4.53
2018-10-02T01:17:33.153Z,3.97
2018-10-02T01:20:00.456Z,4.07
2018-10-02T01:22:27.748Z,4.80
2018-10-02T01:24:55.020Z,3.80
2018-10-02T01:27:22.300Z,3.40
2018-10-02T01:29:49.636Z,4.40
2018-10-02T01:32:16.904Z,8.20
2018-10-02T01:34:44.196Z,5.90
2018-10-02T01:37:11.480Z,4.43
2018-10-02T01:39:38.775Z,7.83
2018-10-02T01:42:06.089Z,6.33
2018-10-02T01:44:33.456Z,5.53
2018-10-02T01:47:00.817Z,5.37
2018-10-02T01:49:28.208Z,4.70
2018-10-02T01:51:55.480Z,5.97
2018-10-02T01:54:22.767Z,6.73
2018-10-02T01:56:50.092Z,7.47
2018-10-02T01:59:17.384Z,6.90
2018-10-02T02:01:45.092Z,6.17
2018-10-02T02:04:12.394Z,7.03
2018-10-02T02:06:39.737Z,4.63
2018-10-02T02:09:07.338Z,8.43
2018-10-02T02:11:34.763Z,6.33
2018-10-02T02:14:02.060Z,6.03
2018-10-02T02:16:29.401Z,7.70
2018-10-02T02:18:56.829Z,5.13
2018-10-02T02:21:24.183Z,6.30
2018-10-02T02:23:51.469Z,8.73
2018-10-02T02:26:18.816Z,6.07
2018-10-02T02:28:46.123Z,6.63
2018-10-02T02:31:13.450Z,5.93
2018-10-02T02:33:40.778Z,8.03
2018-10-02T02:36:08.095Z,5.63
2018-10-02T02:38:35.397Z,9.13
2018-10-02T02:41:02.865Z,6.60
2018-10-02T02:43:30.254Z,8.60
2018-10-02T02:45:57.692Z,9.90
2018-10-02T02:48:30.577Z,8.93
2018-10-02T02:51:32.325Z,9.43
2018-10-02T02:53:59.644Z,9.20
2018-10-02T02:56:27.948Z,10.37
2018-10-02T02:58:55.812Z,9.67
2018-10-02T03:01:23.115Z,8.97
2018-10-02T03:03:50.446Z,8.40
2018-10-02T03:06:17.747Z,9.07
2018-10-02T03:08:45.047Z,8.80
2018-10-02T03:11:12.322Z,8.23
2018-10-02T03:13:39.624Z,8.83
2018-10-02T03:16:06.907Z,10.50
2018-10-02T03:18:34.199Z,8.77
2018-10-02T03:21:01.465Z,8.43
2018-10-02T03:23:28.756Z,10.13
2018-10-02T03:25:56.064Z,10.83
2018-10-02T03:28:23.352Z,9.23
2018-10-02T03:30:50.690Z,9.13
2018-10-02T03:33:17.921Z,10.80
2018-10-02T03:35:45.153Z,11.97
2018-10-02T03:38:12.412Z,11.20
2018-10-02T03:40:39.760Z,8.87
2018-10-02T03:43:07.093Z,10.43
2018-10-02T03:45:34.369Z,10.80
2018-10-02T03:48:01.635Z,9.20
2018-10-02T03:50:28.911Z,11.53
2018-10-02T03:52:56.235Z,9.97
2018-10-02T03:55:23.499Z,10.53
2018-10-02T03:57:50.747Z,11.47
2018-10-02T04:00:18.091Z,10.03
2018-10-02T04:02:45.323Z,11.83
2018-10-02T04:05:12.639Z,10.43
2018-10-02T04:07:39.906Z,13.63
2018-10-02T04:10:07.147Z,13.30
2018-10-02T04:12:34.378Z,10.80
2018-10-02T04:15:01.663Z,10.70
2018-10-02T04:17:28.889Z,12.40
2018-10-02T04:19:56.279Z,12.93
2018-10-02T04:22:23.531Z,13.80
2018-10-02T04:24:50.786Z,12.57
2018-10-02T04:27:18.076Z,10.67
2018-10-02T04:29:45.385Z,10.40
2018-10-02T04:32:12.622Z,11.23
2018-10-02T04:34:39.881Z,12.20
2018-10-02T04:37:07.194Z,9.80
2018-10-02T04:39:34.511Z,11.60
2018-10-02T04:42:01.750Z,10.90
2018-10-02T04:44:29.016Z,14.17
2018-10-02T04:46:56.425Z,15.70
2018-10-02T04:49:23.619Z,10.67
2018-10-02T04:51:50.922Z,15.10
2018-10-02T04:54:18.207Z,11.10
2018-10-02T04:56:45.553Z,14.87
2018-10-02T04:59:12.867Z,10.53
2018-10-02T05:01:40.238Z,10.67
2018-10-02T05:04:07.511Z,8.60
2018-10-02T05:06:34.855Z,14.20
2018-10-02T05:09:02.280Z,11.73
2018-10-02T05:11:29.627Z,12.63
2018-10-02T05:13:56.996Z,13.40
2018-10-02T05:16:24.294Z,12.37
2018-10-02T05:18:51.643Z,11.90
2018-10-02T05:21:18.906Z,13.47
2018-10-02T05:23:46.162Z,17.13
2018-10-02T05:26:13.416Z,11.37
2018-10-02T05:28:40.686Z,13.43
2018-10-02T05:31:07.952Z,11.00
2018-10-02T05:33:35.224Z,13.10
2018-10-02T05:36:02.504Z,11.30
2018-10-02T05:38:29.779Z,11.77
2018-10-02T05:40:57.063Z,14.03
2018-10-02T05:43:24.412Z,13.90
2018-10-02T05:45:51.653Z,16.60
2018-10-02T05:48:19.013Z,14.40
2018-10-02T05:50:46.359Z,13.47
2018-10-02T05:53:13.653Z,13.87
2018-10-02T05:55:40.888Z,10.97
2018-10-02T05:58:08.193Z,12.03
2018-10-02T06:00:35.448Z,11.80
2018-10-02T06:03:02.738Z,11.23
2018-10-02T06:05:30.040Z,12.57
2018-10-02T06:07:57.377Z,8.87
2018-10-02T06:10:24.649Z,9.33
2018-10-02T06:12:51.879Z,10.47
2018-10-02T06:15:19.154Z,11.10
2018-10-02T06:17:46.414Z,12.27
2018-10-02T06:20:13.654Z,11.10
2018-10-02T06:22:40.958Z,9.70
2018-10-02T06:25:08.211Z,9.17
2018-10-02T06:27:35.499Z,12.70
2018-10-02T06:30:02.787Z,11.10
2018-10-02T06:32:30.148Z,9.60
2018-10-02T06:34:57.392Z,11.10
2018-10-02T06:37:24.673Z,9.63
2018-10-02T06:39:51.927Z,12.67
2018-10-02T06:42:19.165Z,11.70
2018-10-02T06:44:46.403Z,11.60
2018-10-02T06:47:13.697Z,11.07
2018-10-02T06:49:40.938Z,8.80
2018-10-02T06:52:08.463Z,9.13
2018-10-02T06:54:35.455Z,10.60
2018-10-02T06:57:02.849Z,9.73
2018-10-02T06:59:30.075Z,10.20
2018-10-02T07:01:57.346Z,9.90
2018-10-02T07:04:25.070Z,10.33
2018-10-02T07:06:52.432Z,7.60
2018-10-02T07:09:19.639Z,9.43
2018-10-02T07:11:46.934Z,9.63
2018-10-02T07:14:14.363Z,9.10
2018-10-02T07:16:41.643Z,9.30
2018-10-02T07:19:08.960Z,7.53
2018-10-02T07:21:36.348Z,6.43
2018-10-02T07:24:03.740Z,11.23
2018-10-02T07:26:31.129Z,11.13
2018-10-02T07:28:58.353Z,5.77
2018-10-02T07:31:25.660Z,11.73
2018-10-02T07:33:52.943Z,10.37
2018-10-02T07:36:20.232Z,7.90
2018-10-02T07:38:47.571Z,10.87
2018-10-02T07:41:14.852Z,13.47
2018-10-02T07:43:42.177Z,9.20
2018-10-02T07:46:09.472Z,7.07
2018-10-02T07:48:36.899Z,7.57
2018-10-02T07:51:04.305Z,9.03
2018-10-02T07:53:31.606Z,6.50
2018-10-02T07:55:58.924Z,8.83
2018-10-02T07:58:26.212Z,5.67
2018-10-02T08:00:53.499Z,9.80
2018-10-02T08:03:20.873Z,7.63
2018-10-02T08:05:48.232Z,8.23
2018-10-02T08:08:15.461Z,9.77
2018-10-02T08:10:42.725Z,8.77
2018-10-02T08:13:10.036Z,6.57
2018-10-02T08:15:38.260Z,13.57
2018-10-02T08:18:05.926Z,11.37
2018-10-02T08:20:33.132Z,8.87
2018-10-02T08:23:00.348Z,8.47
2018-10-02T08:25:27.631Z,10.20
2018-10-02T08:27:55.242Z,9.83
2018-10-02T08:30:22.665Z,10.17
2018-10-02T08:32:50.037Z,7.77
2018-10-02T08:35:17.377Z,10.40
2018-10-02T08:37:44.987Z,7.60
2018-10-02T08:40:12.262Z,8.00
2018-10-02T08:42:39.513Z,9.20
2018-10-02T08:45:07.285Z,9.23
2018-10-02T08:47:34.493Z,8.30
2018-10-02T08:50:01.901Z,7.60
2018-10-02T08:52:29.221Z,10.57
2018-10-02T08:54:56.624Z,7.10
2018-10-02T08:57:23.875Z,7.67
2018-10-02T08:59:51.242Z,11.73
2018-10-02T09:02:18.539Z,8.15
2018-10-02T09:04:45.807Z,8.98
2018-10-02T09:07:13.076Z,7.78
2018-10-02T09:09:40.339Z,15.55
2018-10-02T09:12:07.562Z,8.33
2018-10-02T09:14:34.932Z,11.57
2018-10-02T09:17:02.202Z,9.85
2018-10-02T09:19:29.480Z,9.45
2018-10-02T09:21:56.743Z,10.20
2018-10-02T09:24:24.058Z,9.70
2018-10-02T09:26:51.335Z,8.48
2018-10-02T09:29:18.639Z,8.20
2018-10-02T09:31:51.451Z,9.13
2018-10-02T09:34:40.937Z,9.95
2018-10-02T09:38:46.453Z,9.40
2018-10-02T09:44:35.611Z,8.20
2018-10-02T10:02:29.855Z,10.10
2018-10-02T10:05:24.513Z,7.77
2018-10-02T10:08:05.380Z,10.75
2018-10-02T10:10:33.357Z,6.20
2018-10-02T10:13:01.542Z,6.90
2018-10-02T10:15:29.613Z,9.78
2018-10-02T10:17:57.807Z,7.93
2018-10-02T10:20:26.199Z,5.83
2018-10-02T10:22:55.166Z,7.78
2018-10-02T10:25:23.412Z,7.92
2018-10-02T10:27:57.202Z,7.20
2018-10-02T10:30:25.163Z,6.73
2018-10-02T10:32:53.369Z,6.93
2018-10-02T10:35:21.389Z,7.87
2018-10-02T10:37:49.279Z,8.17
2018-10-02T10:40:17.769Z,5.83
2018-10-02T10:42:46.778Z,5.53
2018-10-02T10:45:14.721Z,6.23
2018-10-02T10:47:42.697Z,6.97
2018-10-02T10:50:10.404Z,9.30
2018-10-02T10:52:38.430Z,6.47
2018-10-02T10:55:31.542Z,4.20
2018-10-02T10:57:59.420Z,4.30
2018-10-02T11:00:27.385Z,4.77
2018-10-02T11:02:55.398Z,5.93
2018-10-02T11:05:23.319Z,5.70
2018-10-02T11:07:51.127Z,5.10
2018-10-02T11:10:20.450Z,4.37
2018-10-02T11:12:48.701Z,5.77
2018-10-02T11:15:17.631Z,7.10
2018-10-02T11:17:45.524Z,6.13
2018-10-02T11:20:16.092Z,5.63
2018-10-02T11:22:43.926Z,4.27
2018-10-02T11:25:15.308Z,6.07
2018-10-02T11:27:43.221Z,5.83
2018-10-02T11:30:11.580Z,5.20
2018-10-02T11:32:39.453Z,6.47
2018-10-02T11:35:07.468Z,4.73
2018-10-02T11:37:35.549Z,3.73
2018-10-02T11:40:04.109Z,4.03
2018-10-02T11:42:31.448Z,6.63
2018-10-02T11:44:58.957Z,4.57
2018-10-02T11:47:26.085Z,4.73
2018-10-02T11:49:53.468Z,3.07
2018-10-02T11:52:20.708Z,5.90
2018-10-02T11:54:48.050Z,4.53
2018-10-02T11:57:15.347Z,3.93
2018-10-02T11:59:42.675Z,5.33
2018-10-02T12:02:10.168Z,4.37
2018-10-02T12:04:37.487Z,5.27
2018-10-02T12:07:05.157Z,4.07
2018-10-02T12:09:32.472Z,4.80
2018-10-02T12:11:59.819Z,5.60
2018-10-02T12:14:27.417Z,3.33
2018-10-02T12:16:54.431Z,5.30
2018-10-02T12:19:21.753Z,4.30
2018-10-02T12:21:49.028Z,4.47
2018-10-02T12:24:16.332Z,4.80
2018-10-02T12:26:43.779Z,4.58
2018-10-02T12:29:11.242Z,4.17
2018-10-02T12:31:38.533Z,6.95
2018-10-02T12:34:06.352Z,2.80
2018-10-02T12:36:34.243Z,4.73
2018-10-02T12:39:02.290Z,4.93
2018-10-02T12:41:29.602Z,4.77
2018-10-02T12:43:56.863Z,3.70
2018-10-02T12:46:24.167Z,4.13
2018-10-02T12:48:51.498Z,3.93
2018-10-02T12:51:18.917Z,3.60
2018-10-02T12:53:46.164Z,2.80
2018-10-02T12:56:13.520Z,4.67
2018-10-02T12:58:40.791Z,4.13
2018-10-02T13:01:08.375Z,3.87
2018-10-02T13:03:35.624Z,4.93
2018-10-02T13:06:03.022Z,3.87
2018-10-02T13:08:30.284Z,5.10
2018-10-02T13:10:57.623Z,5.33
2018-10-02T13:13:24.907Z,10.63
2018-10-02T13:15:52.220Z,7.42
2018-10-02T13:18:19.511Z,6.00
2018-10-02T13:20:46.771Z,4.53
2018-10-02T13:23:14.053Z,3.43
2018-10-02T13:25:41.408Z,5.00
2018-10-02T13:28:09.531Z,2.80
2018-10-02T13:30:36.791Z,4.00
2018-10-02T13:33:04.278Z,3.10
2018-10-02T13:35:31.630Z,6.70
2018-10-02T13:37:58.878Z,4.80
2018-10-02T13:40:26.167Z,4.50
2018-10-02T13:42:53.446Z,3.90
2018-10-02T13:45:20.731Z,6.33
2018-10-02T13:47:48.028Z,5.10
2018-10-02T13:50:15.304Z,5.33
2018-10-02T13:52:42.607Z,4.23
2018-10-02T13:55:09.840Z,4.33
2018-10-02T13:57:37.122Z,7.10
2018-10-02T14:00:04.496Z,3.87
2018-10-02T14:02:31.834Z,4.30
2018-10-02T14:04:59.229Z,7.13
2018-10-02T14:07:31.357Z,5.13
2018-10-02T14:09:58.681Z,14.13
2018-10-02T14:12:25.999Z,7.97
2018-10-02T14:14:53.352Z,3.93
2018-10-02T14:17:20.572Z,5.93
2018-10-02T14:19:47.846Z,5.57
2018-10-02T14:22:15.170Z,6.80
2018-10-02T14:24:42.520Z,5.80
2018-10-02T14:27:10.136Z,6.37
2018-10-02T14:29:37.432Z,3.80
2018-10-02T14:32:04.772Z,6.37
2018-10-02T14:34:32.053Z,5.50
2018-10-02T14:36:59.411Z,6.97
2018-10-02T14:39:26.699Z,5.07
2018-10-02T14:41:53.992Z,8.37
2018-10-02T14:44:21.314Z,5.90
2018-10-02T14:46:48.610Z,5.50
2018-10-02T14:49:15.927Z,6.03
2018-10-02T14:51:43.205Z,5.00
2018-10-02T14:54:10.477Z,4.80
2018-10-02T14:56:37.753Z,7.90
2018-10-02T14:59:05.158Z,4.43
2018-10-02T15:01:32.437Z,8.50
2018-10-02T15:03:59.712Z,4.17
2018-10-02T15:06:26.967Z,6.77
2018-10-02T15:08:54.470Z,8.17
2018-10-02T15:11:21.781Z,5.97
2018-10-02T15:13:49.058Z,4.63
2018-10-02T15:16:16.328Z,5.60
2018-10-02T15:18:43.594Z,4.87
2018-10-02T15:21:10.860Z,4.03
2018-10-02T15:23:38.131Z,3.47
2018-10-02T15:26:05.416Z,5.03
2018-10-02T15:28:32.675Z,6.53
2018-10-02T15:30:59.965Z,7.10
2018-10-02T15:33:27.289Z,7.13
2018-10-02T15:35:54.612Z,6.73
2018-10-02T15:38:21.913Z,7.43
2018-10-02T15:40:49.139Z,6.67
2018-10-02T15:43:16.419Z,3.90
2018-10-02T15:45:43.699Z,3.90
2018-10-02T15:48:10.969Z,6.63
2018-10-02T15:50:38.312Z,6.27
2018-10-02T15:53:05.527Z,5.57
2018-10-02T15:55:32.779Z,6.70
2018-10-02T15:58:00.088Z,5.43
2018-10-02T16:00:27.299Z,4.83
2018-10-02T16:02:54.566Z,4.87
2018-10-02T16:05:21.952Z,8.77
2018-10-02T16:07:49.354Z,2.80
2018-10-02T16:10:16.643Z,3.97
2018-10-02T16:12:43.917Z,6.63
2018-10-02T16:15:11.207Z,5.57
2018-10-02T16:17:38.468Z,5.70
2018-10-02T16:20:05.760Z,6.83
2018-10-02T16:22:33.044Z,6.77
2018-10-02T16:25:00.409Z,5.60
2018-10-02T16:27:27.619Z,10.37
2018-10-02T16:29:54.938Z,5.13
2018-10-02T16:32:22.231Z,4.57
2018-10-02T16:34:49.692Z,5.60
2018-10-02T16:37:16.809Z,7.37
2018-10-02T16:39:44.088Z,5.13
2018-10-02T16:42:11.403Z,3.23
2018-10-02T16:44:38.684Z,4.67
2018-10-02T16:47:06.033Z,3.40
2018-10-02T16:49:33.256Z,3.90
2018-10-02T16:52:00.555Z,5.53
2018-10-02T16:54:27.838Z,2.77
2018-10-02T16:56:55.099Z,4.90
2018-10-02T16:59:22.618Z,5.27
2018-10-02T17:01:49.883Z,3.87
2018-10-02T17:04:17.811Z,3.43
2018-10-02T17:06:45.125Z,5.13
2018-10-02T17:09:12.419Z,3.13
2018-10-02T17:11:40.080Z,2.57
2018-10-02T17:14:07.496Z,3.97
2018-10-02T17:16:34.984Z,3.47
2018-10-02T17:19:02.320Z,2.87
2018-10-02T17:21:29.592Z,3.70
2018-10-02T17:23:56.974Z,3.03
2018-10-02T17:26:24.328Z,6.70
2018-10-02T17:28:51.720Z,3.00
2018-10-02T17:31:18.957Z,3.50
2018-10-02T17:33:46.275Z,4.17
2018-10-02T17:36:13.666Z,4.50
2018-10-02T17:38:40.944Z,5.60
2018-10-02T17:41:08.218Z,4.60
2018-10-02T17:43:35.992Z,3.43
2018-10-02T17:46:03.288Z,4.60
2018-10-02T17:48:30.544Z,10.33
2018-10-02T17:50:57.909Z,4.73
2018-10-02T17:53:25.175Z,16.27
2018-10-02T17:55:52.450Z,4.23
2018-10-02T17:58:19.764Z,3.20
2018-10-02T18:00:47.085Z,4.60
2018-10-02T18:03:14.343Z,3.27
2018-10-02T18:05:41.784Z,4.53
2018-10-02T18:08:09.046Z,4.33
2018-10-02T18:10:36.311Z,5.37
2018-10-02T18:13:03.932Z,3.93
2018-10-02T18:15:31.246Z,3.23
2018-10-02T18:17:58.472Z,5.73
2018-10-02T18:20:25.748Z,3.03
2018-10-02T18:22:52.992Z,2.10
2018-10-02T18:25:20.252Z,3.30
2018-10-02T18:27:47.564Z,4.37
2018-10-02T18:30:14.823Z,5.80
2018-10-02T18:32:42.067Z,5.00
2018-10-02T18:35:09.324Z,3.70
2018-10-02T18:37:36.575Z,5.30
2018-10-02T18:40:03.879Z,6.87
2018-10-02T18:42:31.145Z,8.80
2018-10-02T18:44:58.484Z,11.83
2018-10-02T18:47:25.747Z,6.37
2018-10-02T18:49:53.001Z,4.63
2018-10-02T18:52:20.261Z,3.10
2018-10-02T18:54:47.664Z,11.10
2018-10-02T18:57:14.935Z,7.00
2018-10-02T18:59:42.216Z,3.40
2018-10-02T19:02:09.482Z,3.83
2018-10-02T19:04:36.724Z,4.40
2018-10-02T19:07:03.999Z,3.83
2018-10-02T19:09:31.272Z,4.63
2018-10-02T19:12:04.288Z,4.77
2018-10-02T19:14:31.560Z,7.30
2018-10-02T19:16:58.811Z,8.47
2018-10-02T19:19:31.708Z,6.13
2018-10-02T19:21:58.944Z,6.40
2018-10-02T19:24:26.204Z,5.63
2018-10-02T19:26:53.467Z,6.70
2018-10-02T19:29:20.767Z,3.93
2018-10-02T19:32:06.651Z,5.47
2018-10-02T19:34:33.924Z,5.27
2018-10-02T19:37:01.172Z,5.17
2018-10-02T19:39:30.144Z,7.07
2018-10-02T19:41:58.304Z,4.13
2018-10-02T19:44:25.587Z,3.17
2018-10-02T19:46:56.416Z,4.97
2018-10-02T19:49:25.378Z,4.17
2018-10-02T19:52:00.139Z,6.87
2018-10-02T19:54:27.399Z,3.47
2018-10-02T19:56:54.899Z,5.57
2018-10-02T19:59:22.396Z,6.13
2018-10-02T20:01:49.727Z,3.30
2018-10-02T20:04:17.067Z,5.60
2018-10-02T20:06:44.253Z,4.73
2018-10-02T20:09:11.903Z,6.73
2018-10-02T20:11:39.503Z,8.53
2018-10-02T20:14:06.948Z,9.50
2018-10-02T20:16:34.573Z,6.17
2018-10-02T20:19:01.898Z,4.77
2018-10-02T20:21:29.191Z,4.10
2018-10-02T20:23:56.468Z,23.30
2018-10-02T20:26:23.740Z,4.67
2018-10-02T20:28:51.013Z,5.03
2018-10-02T20:31:18.298Z,6.50
2018-10-02T20:33:45.591Z,4.80
2018-10-02T20:36:12.863Z,5.80
2018-10-02T20:38:40.132Z,2.83
2018-10-02T20:41:07.511Z,5.93
2018-10-02T20:43:34.748Z,5.03
2018-10-02T20:46:02.003Z,6.10
2018-10-02T20:48:29.309Z,4.47
2018-10-02T20:50:56.568Z,5.77
2018-10-02T20:53:23.832Z,3.77
2018-10-02T20:55:51.104Z,7.63
2018-10-02T20:58:18.394Z,4.20
2018-10-02T21:00:45.668Z,8.70
2018-10-02T21:03:13.016Z,4.43
2018-10-02T21:05:40.335Z,4.37
2018-10-02T21:08:07.781Z,4.10
2018-10-02T21:10:35.068Z,2.97
2018-10-02T21:13:02.405Z,5.30
2018-10-02T21:15:29.937Z,5.83
2018-10-02T21:17:57.128Z,6.97
2018-10-02T21:20:24.376Z,8.23
2018-10-02T21:22:51.822Z,8.70
2018-10-02T21:25:19.139Z,4.17
2018-10-02T21:27:46.440Z,6.50
2018-10-02T21:30:13.738Z,5.10
2018-10-02T21:32:41.010Z,5.77
2018-10-02T21:35:08.284Z,5.93
2018-10-02T21:37:35.587Z,5.90
2018-10-02T21:40:03.012Z,5.37
2018-10-02T21:42:30.300Z,5.47
2018-10-02T21:44:57.652Z,5.40
2018-10-02T21:47:24.934Z,5.63
2018-10-02T21:49:52.264Z,5.87
2018-10-02T21:52:19.524Z,4.60
2018-10-02T21:54:46.811Z,5.33
2018-10-02T21:57:14.217Z,5.50
2018-10-02T21:59:41.376Z,5.07
2018-10-02T22:02:08.620Z,7.03
2018-10-02T22:04:35.866Z,5.23
2018-10-02T22:07:03.127Z,6.63
2018-10-02T22:09:30.392Z,7.10
2018-10-02T22:11:57.631Z,9.67
2018-10-02T22:14:24.939Z,5.03
2018-10-02T22:16:52.237Z,8.27
2018-10-02T22:19:19.687Z,5.80
2018-10-02T22:21:46.935Z,6.80
2018-10-02T22:24:14.335Z,7.30
2018-10-02T22:26:41.599Z,6.50
2018-10-02T22:29:08.862Z,5.77
2018-10-02T22:31:36.148Z,4.00
2018-10-02T22:34:03.452Z,6.77
2018-10-02T22:36:30.795Z,6.63
2018-10-02T22:38:58.062Z,7.40
2018-10-02T22:41:25.322Z,6.00
2018-10-02T22:43:52.615Z,6.13
2018-10-02T22:46:19.967Z,7.07
2018-10-02T22:48:47.222Z,6.47
2018-10-02T22:51:14.486Z,7.83
2018-10-02T22:53:41.756Z,7.83
2018-10-02T22:56:09.048Z,6.47
2018-10-02T22:58:36.364Z,6.33
2018-10-02T23:01:03.679Z,6.23
2018-10-02T23:03:30.917Z,6.87
2018-10-02T23:05:58.183Z,5.60
2018-10-02T23:08:25.421Z,6.83
2018-10-02T23:10:52.852Z,6.33
2018-10-02T23:13:20.215Z,6.60
2018-10-02T23:15:47.476Z,9.40
2018-10-02T23:18:14.726Z,8.13
2018-10-02T23:20:42.066Z,7.40
2018-10-02T23:23:09.357Z,8.50
2018-10-02T23:25:36.591Z,7.50
2018-10-02T23:28:03.859Z,5.97
2018-10-02T23:30:31.151Z,6.90
2018-10-02T23:32:58.491Z,6.40
2018-10-02T23:35:25.775Z,7.53
2018-10-02T23:37:53.276Z,7.50
2018-10-02T23:40:20.548Z,5.37
2018-10-02T23:42:47.835Z,6.47
2018-10-02T23:45:15.163Z,8.27
2018-10-02T23:47:42.452Z,5.90
2018-10-02T23:50:09.727Z,4.40
2018-10-02T23:52:36.989Z,6.00
2018-10-02T23:55:04.407Z,6.77
2018-10-02T23:57:31.667Z,5.47
2018-10-02T23:59:58.939Z,6.60
